Latest Weather Observations for Forbes

IDN60801

Issued at 1:03 pm EDT Tuesday 21 November 2017 (issued every 30 minutes, with the page automatically refreshed every 10 minutes)

About weather observations | Map of weather stations | Latest weather observations for NSW | Other Formats
Station Details ID: 065103 Name: FORBES AIRPORT AWS Lat: -33.36 Lon: 147.92 Height: 230.4 m
Data from the previous 72 hours. | See also: Recent months at Forbes
Date/Time
EDT
Temp
°C
App
Temp
°C
Dew
Point
°C
Rel
Hum
%
Delta-T
°C
Wind Press
QNH
hPa
Press
MSL
hPa
Rain since
9am
mm
Dir  Spd
km/h
Gust
km/h
Spd
kts
Gust
kts
21/01:00pm 26.1 23.9 10.7 38 8.7 S 13 22 7 12 1020.7 1019.9 0.0
21/12:30pm 25.3 22.9 10.0 38 8.5 S 13 19 7 10 1021.0 1020.2 0.0
21/12:00pm 25.8 23.9 10.4 38 8.6 NNE 11 20 6 11 1021.5 1020.7 0.0
21/11:30am 23.7 21.3 8.6 38 8.2 N 11 19 6 10 1021.9 1021.1 0.0
21/11:00am 23.8 22.1 9.8 41 7.7 E 9 24 5 13 1022.2 1021.5 0.0
21/10:30am 22.3 20.7 10.1 46 6.7 NNE 9 20 5 11 1022.5 1021.7 0.0
21/10:00am 21.8 19.7 11.2 51 5.9 NNE 13 19 7 10 1022.6 1021.8 0.0
21/09:30am 20.8 18.6 10.9 53 5.5 NE 13 22 7 12 1022.7 1021.9 0.0
21/09:00am 19.7 17.7 10.1 54 5.2 ENE 11 19 6 10 1023.0 1022.2 0.0
21/08:30am 18.9 16.9 10.2 57 4.7 ENE 11 17 6 9 1023.0 1022.2 0.0
21/08:00am 17.9 15.6 10.5 62 4.0 ESE 13 19 7 10 1022.9 1022.1 0.0
21/07:30am 16.8 14.5 10.6 67 3.3 ESE 13 17 7 9 1022.6 1021.8 0.0
21/07:00am 15.3 13.0 10.5 73 2.5 SE 13 17 7 9 1022.2 1021.5 0.0
21/06:30am 14.4 11.7 10.2 76 2.2 ESE 15 20 8 11 1021.8 1021.0 0.0
21/06:00am 13.0 11.0 10.2 83 1.5 SE 11 15 6 8 1021.6 1020.8 0.0
21/05:30am 13.6 11.6 10.2 80 1.8 ESE 11 13 6 7 1021.3 1020.5 0.0
21/05:00am 14.0 12.5 10.4 79 1.9 ESE 9 13 5 7 1021.1 1020.3 0.0
21/04:30am 14.2 12.7 10.6 79 1.9 SSE 9 11 5 6 1021.2 1020.4 0.0
21/04:00am 15.1 12.6 11.1 77 2.1 ESE 15 20 8 11 1020.9 1020.1 0.0
21/03:30am 14.8 13.5 11.4 80 1.8 E 9 15 5 8 1021.0 1020.2 0.0
21/03:00am 14.0 12.6 10.8 81 1.7 ESE 9 11 5 6 1021.1 1020.3 0.0
21/02:30am 15.7 14.0 11.3 75 2.4 ESE 11 15 6 8 1020.7 1019.9 0.0
21/02:00am 16.1 14.8 11.3 73 2.6 SE 9 11 5 6 1020.8 1020.0 0.0
21/01:30am 17.0 16.0 11.1 68 3.2 SE 7 9 4 5 1020.9 1020.1 0.0
21/01:00am 17.2 15.1 11.0 67 3.4 E 13 17 7 9 1021.0 1020.2 0.0
21/12:30am 18.4 17.1 11.2 63 4.0 NE 9 15 5 8 1021.1 1020.3 0.0
21/12:00am 17.6 16.5 10.5 63 3.8 NNE 7 15 4 8 1021.1 1020.3 0.0
 
Date/Time
EDT
Temp
°C
App
Temp
°C
Dew
Point
°C
Rel
Hum
%
Delta-T
°C
Wind Press
QNH
hPa
Press
MSL
hPa
Rain since
9am
mm
Dir  Spd
km/h
Gust
km/h
Spd
kts
Gust
kts
20/11:30pm 20.0 17.1 11.0 56 5.0 ESE 17 24 9 13 1021.0 1020.2 0.0
20/11:00pm 20.0 18.0 11.5 58 4.7 ESE 13 17 7 9 1020.9 1020.1 0.0
20/10:30pm 20.9 18.2 11.8 56 5.1 ESE 17 20 9 11 1020.8 1020.0 0.0
20/10:00pm 21.3 18.7 11.9 55 5.3 ESE 17 20 9 11 1020.5 1019.7 0.0
20/09:30pm 21.9 19.6 11.6 52 5.8 ESE 15 19 8 10 1020.2 1019.4 0.0
20/09:00pm 22.3 19.8 11.1 49 6.3 ESE 15 17 8 9 1019.8 1019.0 0.0
20/08:30pm 21.8 19.3 11.2 51 5.9 NE 15 17 8 9 1019.3 1018.5 0.0
20/08:00pm 23.3 20.6 10.4 44 7.2 NE 15 17 8 9 1019.1 1018.3 0.0
20/07:30pm 26.1 23.4 9.0 34 9.4 NE 13 19 7 10 1018.9 1018.1 0.0
20/07:00pm 27.7 24.8 8.1 29 10.7 NE 13 22 7 12 1018.7 1017.9 0.0
20/06:30pm 28.5 27.2 7.7 27 11.3 S 4 11 2 6 1018.4 1017.6 0.0
20/06:00pm 28.6 26.0 7.8 27 11.4 E 11 17 6 9 1018.4 1017.6 0.0
20/05:30pm 28.6 25.7 8.3 28 11.2 ESE 13 20 7 11 1018.5 1017.7 0.0
20/05:00pm 28.3 26.5 8.1 28 11.1 ESE 7 17 4 9 1018.7 1017.9 0.0
20/04:30pm 28.7 25.9 9.9 31 10.6 SE 15 22 8 12 1018.9 1018.1 0.0
20/04:00pm 29.0 26.2 8.7 28 11.3 E 13 26 7 14 1019.2 1018.4 0.0
20/03:30pm 27.9 25.3 9.2 31 10.4 NNE 13 26 7 14 1019.7 1018.9 0.0
20/03:00pm 27.2 24.6 7.6 29 10.6 SSE 11 22 6 12 1020.3 1019.5 0.0
20/02:30pm 27.2 23.5 8.1 30 10.4 ESE 17 24 9 13 1020.7 1019.9 0.0
20/02:00pm 26.6 24.4 9.5 34 9.5 ESE 11 22 6 12 1021.2 1020.4 0.0
20/01:30pm 25.9 23.2 8.8 34 9.4 NE 13 20 7 11 1021.7 1020.9 0.0
20/01:00pm 25.7 22.7 7.8 32 9.6 ESE 13 22 7 12 1022.1 1021.4 0.0
20/12:30pm 25.5 22.4 8.9 35 9.1 ESE 15 26 8 14 1022.6 1021.8 0.0
20/12:00pm 24.5 21.6 8.0 35 8.8 ENE 13 20 7 11 1023.1 1022.3 0.0
20/11:30am 23.5 21.6 7.6 36 8.4 E 7 15 4 8 1023.2 1022.4 0.0
20/11:00am 23.1 20.4 8.8 40 7.7 NNE 13 22 7 12 1023.5 1022.7 0.0
20/10:30am 22.5 20.5 10.0 45 6.9 NE 11 17 6 9 1023.6 1022.8 0.0
20/10:00am 21.7 18.7 10.8 50 6.0 ENE 17 24 9 13 1023.7 1022.9 0.0
20/09:30am 20.9 18.0 11.0 53 5.5 ENE 17 22 9 12 1024.0 1023.2 0.0
20/09:00am 20.1 17.6 11.1 56 5.0 ENE 15 22 8 12 1024.0 1023.2 0.0
20/08:30am 19.8 17.2 12.1 61 4.3 ESE 17 20 9 11 1023.9 1023.1 0.0
20/08:00am 18.3 16.1 12.1 67 3.5 ESE 15 19 8 10 1023.8 1023.0 0.0
20/07:30am 16.9 15.6 12.6 76 2.4 ESE 11 17 6 9 1023.4 1022.6 0.0
20/07:00am 15.7 16.5 12.6 82 1.7 CALM 0 0 0 0 1023.3 1022.5 0.0
20/06:30am 13.1 13.8 12.2 94 0.5 CALM 0 0 0 0 1022.8 1022.0 0.0
20/06:00am 11.9 12.2 11.0 94 0.5 CALM 0 0 0 0 1022.5 1021.7 0.0
20/05:30am 12.1 12.3 10.7 91 0.7 CALM 0 0 0 0 1022.1 1021.4 0.0
20/05:00am 12.5 12.7 10.7 89 0.9 CALM 0 0 0 0 1021.8 1021.0 0.0
20/04:30am 12.5 12.7 10.6 88 1.0 CALM 0 0 0 0 1021.7 1020.9 0.0
20/04:00am 13.5 12.2 11.2 86 1.2 ESE 9 9 5 5 1021.5 1020.7 0.0
20/03:30am 14.2 13.4 11.2 82 1.6 E 6 7 3 4 1021.3 1020.5 0.0
20/03:00am 15.2 13.8 10.8 75 2.4 E 9 9 5 5 1021.3 1020.5 0.0
20/02:30am 15.6 14.7 11.4 76 2.3 ENE 7 9 4 5 1021.4 1020.6 0.0
20/02:00am 15.1 13.8 11.3 78 2.0 ENE 9 11 5 6 1021.4 1020.6 0.0
20/01:30am 16.7 14.9 10.8 68 3.2 ESE 11 15 6 8 1021.2 1020.4 0.0
20/01:00am 17.2 15.4 10.8 66 3.5 ESE 11 15 6 8 1021.3 1020.5 0.0
20/12:30am 16.9 15.3 11.4 70 3.0 ESE 11 15 6 8 1021.2 1020.4 0.0
20/12:00am 17.4 15.7 11.2 67 3.4 E 11 13 6 7 1021.2 1020.4 0.0
 
Date/Time
EDT
Temp
°C
App
Temp
°C
Dew
Point
°C
Rel
Hum
%
Delta-T
°C
Wind Press
QNH
hPa
Press
MSL
hPa
Rain since
9am
mm
Dir  Spd
km/h
Gust
km/h
Spd
kts
Gust
kts
19/11:30pm 18.6 16.6 11.4 63 4.0 ESE 13 17 7 9 1020.9 1020.1 0.0
19/11:00pm 18.5 15.8 11.8 65 3.7 E 17 19 9 10 1020.6 1019.8 0.0
19/10:30pm 19.7 16.6 11.7 60 4.5 E 19 22 10 12 1020.3 1019.5 0.0
19/10:00pm 19.5 17.8 12.3 63 4.1 E 13 17 7 9 1019.9 1019.1 0.0
19/09:30pm 20.5 19.0 13.0 62 4.3 E 13 19 7 10 1019.5 1018.7 0.0
19/09:00pm 21.2 18.9 13.1 60 4.7 ENE 17 19 9 10 1019.1 1018.3 0.0
19/08:30pm 22.0 20.3 12.3 54 5.5 E 13 15 7 8 1018.7 1017.9 0.0
19/08:00pm 23.5 21.8 12.5 50 6.3 ENE 13 15 7 8 1018.6 1017.8 0.0
19/07:30pm 24.4 23.1 11.4 44 7.4 E 9 13 5 7 1018.4 1017.6 0.0
19/07:00pm 25.0 23.3 9.7 38 8.5 E 9 19 5 10 1018.0 1017.1 0.0
19/06:30pm 27.2 25.7 8.6 31 10.2 NE 6 9 3 5 1017.6 1016.8 0.0
19/06:00pm 26.9 26.5 9.7 34 9.6 ESE 2 9 1 5 1017.5 1016.7 0.0
19/05:30pm 25.7 23.7 10.3 38 8.7 ESE 11 17 6 9 1017.4 1016.6 0.0
19/05:00pm 27.1 25.3 10.8 36 9.3 SE 11 19 6 10 1017.5 1016.7 0.0
19/04:30pm 26.0 24.0 10.2 37 8.9 E 11 17 6 9 1017.6 1016.8 0.0
19/04:00pm 25.8 23.9 10.4 38 8.7 SE 11 22 6 12 1018.1 1017.2 0.0
19/03:30pm 27.3 24.3 10.5 35 9.5 NNE 17 28 9 15 1018.1 1017.2 0.0
19/03:00pm 26.1 22.5 9.9 36 9.0 NNE 19 28 10 15 1018.6 1017.8 0.0
19/02:30pm 25.3 22.1 10.0 38 8.5 N 17 24 9 13 1019.0 1018.2 0.0
19/02:00pm 25.4 23.8 10.1 38 8.5 NNE 9 19 5 10 1019.3 1018.5 0.0
19/01:30pm 25.1 22.8 10.6 40 8.2 NNE 13 20 7 11 1019.8 1019.0 0.0
19/01:00pm 25.5 22.6 12.4 44 7.6 NNE 19 26 10 14 1020.1 1019.3 0.0
19/12:30pm 25.0 22.0 10.8 41 8.0 NE 17 28 9 15 1020.3 1019.5 0.0
19/12:00pm 24.3 21.8 10.9 43 7.5 NNE 15 24 8 13 1020.4 1019.6 0.0
19/11:30am 24.1 21.1 10.7 43 7.5 NNE 17 35 9 19 1020.6 1019.8 0.0
19/11:00am 24.8 21.5 11.7 44 7.5 NE 20 32 11 17 1020.8 1020.0 0.0
19/10:30am 23.4 19.3 11.5 47 6.8 NE 24 30 13 16 1020.7 1019.9 0.0
19/10:00am 23.0 19.0 11.7 49 6.4 NE 24 33 13 18 1020.4 1019.6 0.0
19/09:30am 22.8 19.2 11.8 50 6.3 ENE 22 33 12 18 1020.4 1019.6 0.0
19/09:00am 21.5 17.8 11.5 53 5.6 ENE 22 28 12 15 1020.4 1019.6 0.2
19/08:30am 20.8 17.4 12.5 59 4.7 ENE 22 30 12 16 1020.2 1019.4 0.2
19/08:00am 18.6 16.6 12.8 69 3.3 E 15 19 8 10 1020.1 1019.3 0.2
19/07:30am 17.9 17.3 13.4 75 2.6 E 9 13 5 7 1019.8 1019.0 0.2
19/07:00am 17.1 16.0 13.2 78 2.2 E 11 15 6 8 1019.5 1018.7 0.2
19/06:30am 16.7 15.2 13.2 80 2.0 E 13 15 7 8 1019.2 1018.4 0.2
19/06:00am 16.6 15.2 13.5 82 1.8 ESE 13 17 7 9 1018.8 1018.0 0.2
19/05:30am 16.5 15.2 13.8 84 1.5 ESE 13 15 7 8 1018.4 1017.6 0.2
19/05:00am 17.0 15.8 14.1 83 1.7 ESE 13 17 7 9 1018.1 1017.2 0.2
19/04:30am 16.5 16.2 14.3 87 1.3 SE 9 11 5 6 1017.9 1017.0 0.2
19/04:00am 16.8 16.5 14.4 86 1.4 SE 9 11 5 6 1017.7 1016.9 0.2
19/03:30am 17.0 16.0 14.6 86 1.4 E 13 15 7 8 1017.6 1016.8 0.2
19/03:00am 17.0 16.5 14.8 87 1.3 E 11 13 6 7 1017.6 1016.8 0.2
19/02:30am 17.0 16.9 15.0 88 1.2 ESE 9 11 5 6 1017.7 1016.9 0.2
19/02:00am 17.4 16.6 15.2 87 1.3 E 13 15 7 8 1017.6 1016.8 0.2
19/01:30am 16.9 17.3 15.4 91 0.9 E 7 9 4 5 1017.6 1016.8 0.2
19/01:00am 17.0 17.0 15.3 90 1.0 ESE 9 11 5 6 1017.7 1016.9 0.2
19/12:30am 16.9 16.9 15.1 89 1.1 ESE 9 11 5 6 1017.7 1016.9 0.2
19/12:00am 17.2 17.3 15.4 89 1.1 E 9 13 5 7 1017.9 1017.0 0.2
 
Date/Time
EDT
Temp
°C
App
Temp
°C
Dew
Point
°C
Rel
Hum
%
Delta-T
°C
Wind Press
QNH
hPa
Press
MSL
hPa
Rain since
9am
mm
Dir  Spd
km/h
Gust
km/h
Spd
kts
Gust
kts
18/11:30pm 17.1 16.8 15.4 90 1.0 E 11 13 6 7 1017.7 1016.9 0.2
18/11:00pm 17.4 15.9 15.4 88 1.2 E 17 22 9 12 1017.9 1017.0 0.2
18/10:30pm 17.3 17.3 15.3 88 1.2 ESE 9 13 5 7 1017.7 1016.9 0.2
18/10:00pm 17.3 17.3 15.3 88 1.2 SE 9 11 5 6 1017.7 1016.9 0.2
18/09:30pm 17.2 17.1 15.0 87 1.3 ESE 9 11 5 6 1017.3 1016.5 0.2
18/09:00pm 17.1 16.5 14.7 86 1.4 SE 11 15 6 8 1017.1 1016.3 0.2
18/08:30pm 17.3 17.3 15.1 87 1.3 SE 9 11 5 6 1016.8 1016.0 0.0
18/08:00pm 17.6 17.1 15.0 85 1.5 E 11 15 6 8 1016.8 1016.0 0.0
18/07:30pm 18.2 16.9 14.9 81 1.9 E 15 19 8 10 1016.5 1015.7 0.0
18/07:00pm 18.4 16.6 14.5 78 2.3 E 17 20 9 11 1016.0 1015.2 0.0
18/06:30pm 18.9 17.9 15.6 81 2.0 E 15 20 8 11 1015.5 1014.7 0.0
18/06:00pm 18.6 16.5 14.7 78 2.3 ENE 19 24 10 13 1015.0 1014.2 0.0
18/05:30pm 18.8 16.7 15.1 79 2.2 ENE 20 24 11 13 1015.1 1014.3 0.0
18/05:00pm 18.5 16.9 15.9 85 1.6 ENE 19 24 10 13 1015.7 1014.9 0.0
18/04:30pm 18.2 16.7 16.7 91 0.9 E 20 24 11 13 1016.3 1015.5 0.0
18/04:00pm 17.8 16.2 16.1 90 1.0 ENE 19 26 10 14 1016.7 1015.9 0.0
18/03:30pm 17.7 16.2 16.4 92 0.8 ENE 19 22 10 12 1017.0 1016.2 0.0
18/03:00pm 17.0 17.6 16.7 98 0.2 ENE 9 13 5 7 1017.2 1016.4 0.0
18/02:30pm 16.1 16.9 15.8 98 0.2 E 6 9 3 5 1017.5 1016.7 0.0
18/02:00pm 15.7 17.0 15.2 97 0.3 - 2 9 1 5 1018.0 1017.1 0.0
18/01:30pm 16.5 14.6 14.3 87 1.3 N 17 28 9 15 1017.9 1017.0 0.0

Other Formats:

Comma delimited format used in spreadsheet applications
http://www.bom.gov.au/fwo/IDN60801/IDN60801.94715.axf

JavaScript Object Notation format (JSON) in row-major order
http://www.bom.gov.au/fwo/IDN60801/IDN60801.94715.json